sensor_id;sensor_type;location;lat;lon;timestamp;temperature;humidity
3478;DHT22;37937;61.490;23.506;2023-03-31T00:01:23;-9.70;99.90
3478;DHT22;37937;61.490;23.506;2023-03-31T00:03:49;-9.50;99.90
3478;DHT22;37937;61.490;23.506;2023-03-31T00:06:15;-9.20;99.90
3478;DHT22;37937;61.490;23.506;2023-03-31T00:08:43;-9.00;99.90
3478;DHT22;37937;61.490;23.506;2023-03-31T00:11:09;-8.80;99.90
3478;DHT22;37937;61.490;23.506;2023-03-31T00:13:36;-8.70;99.90
3478;DHT22;37937;61.490;23.506;2023-03-31T00:16:03;-8.80;99.90
3478;DHT22;37937;61.490;23.506;2023-03-31T00:18:30;-9.40;99.90
3478;DHT22;37937;61.490;23.506;2023-03-31T00:21:05;-9.00;99.90
3478;DHT22;37937;61.490;23.506;2023-03-31T00:23:31;-8.90;99.90
3478;DHT22;37937;61.490;23.506;2023-03-31T00:25:56;-8.90;99.90
3478;DHT22;37937;61.490;23.506;2023-03-31T00:28:22;-9.00;99.90
3478;DHT22;37937;61.490;23.506;2023-03-31T00:30:48;-9.30;99.90
3478;DHT22;37937;61.490;23.506;2023-03-31T00:33:14;-9.40;99.90
3478;DHT22;37937;61.490;23.506;2023-03-31T00:35:39;-9.20;99.90
3478;DHT22;37937;61.490;23.506;2023-03-31T00:38:05;-9.00;99.90
3478;DHT22;37937;61.490;23.506;2023-03-31T00:40:33;-8.90;99.90
3478;DHT22;37937;61.490;23.506;2023-03-31T00:42:59;-8.90;99.90
3478;DHT22;37937;61.490;23.506;2023-03-31T00:45:28;-8.90;99.90
3478;DHT22;37937;61.490;23.506;2023-03-31T00:48:10;-8.90;99.90
3478;DHT22;37937;61.490;23.506;2023-03-31T00:50:40;-8.90;99.90
3478;DHT22;37937;61.490;23.506;2023-03-31T00:53:13;-9.60;99.90
3478;DHT22;37937;61.490;23.506;2023-03-31T00:55:42;-9.80;99.90
3478;DHT22;37937;61.490;23.506;2023-03-31T00:58:09;-9.70;99.90
3478;DHT22;37937;61.490;23.506;2023-03-31T01:00:39;-9.90;99.90
3478;DHT22;37937;61.490;23.506;2023-03-31T01:03:06;-9.90;99.90
3478;DHT22;37937;61.490;23.506;2023-03-31T01:08:00;-9.70;99.90
3478;DHT22;37937;61.490;23.506;2023-03-31T01:10:26;-10.10;99.90
3478;DHT22;37937;61.490;23.506;2023-03-31T01:12:53;-10.10;99.90
3478;DHT22;37937;61.490;23.506;2023-03-31T01:15:20;-9.90;99.90
3478;DHT22;37937;61.490;23.506;2023-03-31T01:17:46;-10.00;99.90
3478;DHT22;37937;61.490;23.506;2023-03-31T01:28:22;-10.40;99.90
3478;DHT22;37937;61.490;23.506;2023-03-31T01:31:04;-10.80;99.90
3478;DHT22;37937;61.490;23.506;2023-03-31T01:34:23;-11.10;99.90
3478;DHT22;37937;61.490;23.506;2023-03-31T01:41:48;-10.80;99.90
3478;DHT22;37937;61.490;23.506;2023-03-31T01:47:01;-10.30;99.90
3478;DHT22;37937;61.490;23.506;2023-03-31T01:52:03;-10.40;99.90
3478;DHT22;37937;61.490;23.506;2023-03-31T01:59:43;-10.30;99.90
3478;DHT22;37937;61.490;23.506;2023-03-31T02:04:45;-10.50;99.90
3478;DHT22;37937;61.490;23.506;2023-03-31T02:07:13;-10.90;99.90
3478;DHT22;37937;61.490;23.506;2023-03-31T02:09:43;-11.30;99.90
3478;DHT22;37937;61.490;23.506;2023-03-31T02:12:10;-11.50;99.90
3478;DHT22;37937;61.490;23.506;2023-03-31T02:14:37;-11.70;99.90
3478;DHT22;37937;61.490;23.506;2023-03-31T02:17:03;-11.60;99.90
3478;DHT22;37937;61.490;23.506;2023-03-31T02:19:31;-11.60;99.90
3478;DHT22;37937;61.490;23.506;2023-03-31T02:21:57;-11.40;99.90
3478;DHT22;37937;61.490;23.506;2023-03-31T02:24:24;-11.20;99.90
3478;DHT22;37937;61.490;23.506;2023-03-31T02:26:55;-11.50;99.90
3478;DHT22;37937;61.490;23.506;2023-03-31T02:29:21;-11.80;99.90
3478;DHT22;37937;61.490;23.506;2023-03-31T02:34:31;-12.00;99.90
3478;DHT22;37937;61.490;23.506;2023-03-31T02:36:57;-11.30;99.90
3478;DHT22;37937;61.490;23.506;2023-03-31T02:39:24;-10.90;99.90
3478;DHT22;37937;61.490;23.506;2023-03-31T02:41:51;-11.10;99.90
3478;DHT22;37937;61.490;23.506;2023-03-31T02:44:16;-11.60;99.90
3478;DHT22;37937;61.490;23.506;2023-03-31T02:46:42;-11.80;99.90
3478;DHT22;37937;61.490;23.506;2023-03-31T02:49:08;-11.60;99.90
3478;DHT22;37937;61.490;23.506;2023-03-31T02:51:39;-11.30;99.90
3478;DHT22;37937;61.490;23.506;2023-03-31T03:13:19;-11.20;99.90
3478;DHT22;37937;61.490;23.506;2023-03-31T03:15:52;-11.10;99.90
3478;DHT22;37937;61.490;23.506;2023-03-31T03:18:20;-10.80;99.90
3478;DHT22;37937;61.490;23.506;2023-03-31T03:20:46;-10.60;99.90
3478;DHT22;37937;61.490;23.506;2023-03-31T03:23:14;-10.50;99.90
3478;DHT22;37937;61.490;23.506;2023-03-31T03:25:40;-10.50;99.90
3478;DHT22;37937;61.490;23.506;2023-03-31T03:28:06;-10.50;99.90
3478;DHT22;37937;61.490;23.506;2023-03-31T03:30:31;-10.50;99.90
3478;DHT22;37937;61.490;23.506;2023-03-31T03:32:57;-10.40;99.90
3478;DHT22;37937;61.490;23.506;2023-03-31T03:35:23;-10.40;99.90
3478;DHT22;37937;61.490;23.506;2023-03-31T03:37:49;-10.40;99.90
3478;DHT22;37937;61.490;23.506;2023-03-31T03:40:14;-10.40;99.90
3478;DHT22;37937;61.490;23.506;2023-03-31T03:42:40;-10.40;99.90
3478;DHT22;37937;61.490;23.506;2023-03-31T03:45:06;-10.50;99.90
3478;DHT22;37937;61.490;23.506;2023-03-31T03:47:32;-10.70;99.90
3478;DHT22;37937;61.490;23.506;2023-03-31T03:49:57;-10.90;99.90
3478;DHT22;37937;61.490;23.506;2023-03-31T03:52:23;-10.80;99.90
3478;DHT22;37937;61.490;23.506;2023-03-31T03:54:48;-10.80;99.90
3478;DHT22;37937;61.490;23.506;2023-03-31T03:57:14;-10.80;99.90
3478;DHT22;37937;61.490;23.506;2023-03-31T03:59:40;-11.10;99.90
3478;DHT22;37937;61.490;23.506;2023-03-31T04:02:06;-11.30;99.90
3478;DHT22;37937;61.490;23.506;2023-03-31T04:04:32;-11.10;99.90
3478;DHT22;37937;61.490;23.506;2023-03-31T04:06:57;-10.90;99.90
3478;DHT22;37937;61.490;23.506;2023-03-31T04:09:23;-11.00;99.90
3478;DHT22;37937;61.490;23.506;2023-03-31T04:11:49;-11.20;99.90
3478;DHT22;37937;61.490;23.506;2023-03-31T04:14:14;-11.30;99.90
3478;DHT22;37937;61.490;23.506;2023-03-31T04:16:40;-11.20;99.90
3478;DHT22;37937;61.490;23.506;2023-03-31T04:19:06;-11.00;99.90
3478;DHT22;37937;61.490;23.506;2023-03-31T04:21:32;-10.90;99.90
3478;DHT22;37937;61.490;23.506;2023-03-31T04:23:59;-10.80;99.90
3478;DHT22;37937;61.490;23.506;2023-03-31T04:26:30;-11.20;99.90
3478;DHT22;37937;61.490;23.506;2023-03-31T04:29:04;-11.70;99.90
3478;DHT22;37937;61.490;23.506;2023-03-31T04:31:29;-11.40;99.90
3478;DHT22;37937;61.490;23.506;2023-03-31T04:33:55;-11.40;99.90
3478;DHT22;37937;61.490;23.506;2023-03-31T04:36:27;-11.50;99.90
3478;DHT22;37937;61.490;23.506;2023-03-31T04:38:53;-11.20;99.90
3478;DHT22;37937;61.490;23.506;2023-03-31T04:41:23;-11.10;99.90
3478;DHT22;37937;61.490;23.506;2023-03-31T04:43:49;-11.00;99.90
3478;DHT22;37937;61.490;23.506;2023-03-31T04:46:14;-10.90;99.90
3478;DHT22;37937;61.490;23.506;2023-03-31T04:48:40;-10.90;99.90
3478;DHT22;37937;61.490;23.506;2023-03-31T04:51:05;-10.60;99.90
3478;DHT22;37937;61.490;23.506;2023-03-31T04:53:31;-10.70;99.90
3478;DHT22;37937;61.490;23.506;2023-03-31T04:55:57;-11.20;99.90
3478;DHT22;37937;61.490;23.506;2023-03-31T04:58:23;-11.30;99.90
3478;DHT22;37937;61.490;23.506;2023-03-31T05:00:49;-11.20;99.90
3478;DHT22;37937;61.490;23.506;2023-03-31T05:03:15;-11.00;99.90
3478;DHT22;37937;61.490;23.506;2023-03-31T05:05:41;-10.80;99.90
3478;DHT22;37937;61.490;23.506;2023-03-31T05:08:06;-10.70;99.90
3478;DHT22;37937;61.490;23.506;2023-03-31T05:10:32;-10.70;99.90
3478;DHT22;37937;61.490;23.506;2023-03-31T05:12:58;-10.60;99.90
3478;DHT22;37937;61.490;23.506;2023-03-31T05:15:23;-10.60;99.90
3478;DHT22;37937;61.490;23.506;2023-03-31T05:17:49;-10.50;99.90
3478;DHT22;37937;61.490;23.506;2023-03-31T05:20:16;-10.10;99.90
3478;DHT22;37937;61.490;23.506;2023-03-31T05:22:46;-10.00;99.90
3478;DHT22;37937;61.490;23.506;2023-03-31T05:25:12;-9.70;99.90
3478;DHT22;37937;61.490;23.506;2023-03-31T05:27:46;-9.60;99.90
3478;DHT22;37937;61.490;23.506;2023-03-31T05:30:12;-9.40;99.90
3478;DHT22;37937;61.490;23.506;2023-03-31T05:32:37;-9.20;99.90
3478;DHT22;37937;61.490;23.506;2023-03-31T05:35:03;-9.10;99.90
3478;DHT22;37937;61.490;23.506;2023-03-31T05:37:29;-9.00;99.90
3478;DHT22;37937;61.490;23.506;2023-03-31T05:39:55;-8.80;99.90
3478;DHT22;37937;61.490;23.506;2023-03-31T05:42:20;-8.60;99.90
3478;DHT22;37937;61.490;23.506;2023-03-31T05:44:46;-8.60;99.90
3478;DHT22;37937;61.490;23.506;2023-03-31T05:47:12;-8.30;99.90
3478;DHT22;37937;61.490;23.506;2023-03-31T05:49:37;-8.00;99.90
3478;DHT22;37937;61.490;23.506;2023-03-31T05:52:03;-7.60;99.90
3478;DHT22;37937;61.490;23.506;2023-03-31T05:54:30;-7.20;99.90
3478;DHT22;37937;61.490;23.506;2023-03-31T05:56:56;-6.90;99.90
3478;DHT22;37937;61.490;23.506;2023-03-31T05:59:22;-6.50;99.90
3478;DHT22;37937;61.490;23.506;2023-03-31T06:01:47;-6.20;99.90
3478;DHT22;37937;61.490;23.506;2023-03-31T06:04:13;-5.80;99.90
3478;DHT22;37937;61.490;23.506;2023-03-31T06:06:38;-5.60;99.90
3478;DHT22;37937;61.490;23.506;2023-03-31T06:09:04;-5.30;99.90
3478;DHT22;37937;61.490;23.506;2023-03-31T06:11:30;-5.10;99.90
3478;DHT22;37937;61.490;23.506;2023-03-31T06:13:55;-4.90;99.90
3478;DHT22;37937;61.490;23.506;2023-03-31T06:16:21;-4.60;99.90
3478;DHT22;37937;61.490;23.506;2023-03-31T06:18:47;-4.30;99.90
3478;DHT22;37937;61.490;23.506;2023-03-31T06:21:13;-4.30;99.90
3478;DHT22;37937;61.490;23.506;2023-03-31T06:23:41;-4.20;99.90
3478;DHT22;37937;61.490;23.506;2023-03-31T06:26:12;-3.80;99.90
3478;DHT22;37937;61.490;23.506;2023-03-31T06:28:38;-3.90;99.90
3478;DHT22;37937;61.490;23.506;2023-03-31T06:31:08;-3.90;99.90
3478;DHT22;37937;61.490;23.506;2023-03-31T06:33:34;-4.00;99.90
3478;DHT22;37937;61.490;23.506;2023-03-31T06:36:00;-3.80;99.90
3478;DHT22;37937;61.490;23.506;2023-03-31T06:38:28;-3.70;99.90
3478;DHT22;37937;61.490;23.506;2023-03-31T06:40:54;-3.50;99.90
3478;DHT22;37937;61.490;23.506;2023-03-31T06:43:19;-3.20;99.90
3478;DHT22;37937;61.490;23.506;2023-03-31T06:45:45;-3.00;99.90
3478;DHT22;37937;61.490;23.506;2023-03-31T06:48:11;-2.80;99.90
3478;DHT22;37937;61.490;23.506;2023-03-31T06:50:37;-2.90;99.90
3478;DHT22;37937;61.490;23.506;2023-03-31T06:53:03;-2.80;99.90
3478;DHT22;37937;61.490;23.506;2023-03-31T06:55:29;-2.70;99.90
3478;DHT22;37937;61.490;23.506;2023-03-31T06:57:55;-2.50;99.90
3478;DHT22;37937;61.490;23.506;2023-03-31T07:00:20;-2.50;99.90
3478;DHT22;37937;61.490;23.506;2023-03-31T07:02:46;-2.30;99.90
3478;DHT22;37937;61.490;23.506;2023-03-31T07:05:12;-2.20;99.90
3478;DHT22;37937;61.490;23.506;2023-03-31T07:07:37;-2.00;99.90
3478;DHT22;37937;61.490;23.506;2023-03-31T07:10:03;-2.10;99.70
3478;DHT22;37937;61.490;23.506;2023-03-31T07:12:31;-1.90;99.90
3478;DHT22;37937;61.490;23.506;2023-03-31T07:14:56;-1.80;99.10
3478;DHT22;37937;61.490;23.506;2023-03-31T07:17:22;-1.70;98.10
3478;DHT22;37937;61.490;23.506;2023-03-31T07:19:49;-1.50;98.70
3478;DHT22;37937;61.490;23.506;2023-03-31T07:22:15;-1.30;97.10
3478;DHT22;37937;61.490;23.506;2023-03-31T07:24:40;-1.30;94.80
3478;DHT22;37937;61.490;23.506;2023-03-31T07:27:06;-1.20;96.10
3478;DHT22;37937;61.490;23.506;2023-03-31T07:29:32;-1.00;95.40
3478;DHT22;37937;61.490;23.506;2023-03-31T07:31:57;-0.70;94.10
3478;DHT22;37937;61.490;23.506;2023-03-31T07:34:23;-0.80;95.40
3478;DHT22;37937;61.490;23.506;2023-03-31T07:36:48;-0.60;93.10
3478;DHT22;37937;61.490;23.506;2023-03-31T07:39:15;-0.50;96.10
3478;DHT22;37937;61.490;23.506;2023-03-31T07:41:41;-0.60;93.30
3478;DHT22;37937;61.490;23.506;2023-03-31T07:44:06;-0.20;92.20
3478;DHT22;37937;61.490;23.506;2023-03-31T07:46:32;-0.10;91.10
3478;DHT22;37937;61.490;23.506;2023-03-31T07:48:58;0.00;89.20
3478;DHT22;37937;61.490;23.506;2023-03-31T07:51:26;0.20;91.50
3478;DHT22;37937;61.490;23.506;2023-03-31T07:53:52;0.50;92.90
3478;DHT22;37937;61.490;23.506;2023-03-31T07:56:18;0.50;83.50
3478;DHT22;37937;61.490;23.506;2023-03-31T07:58:45;0.00;76.80
3478;DHT22;37937;61.490;23.506;2023-03-31T08:01:14;0.70;87.80
3478;DHT22;37937;61.490;23.506;2023-03-31T08:03:44;0.60;81.60
3478;DHT22;37937;61.490;23.506;2023-03-31T08:06:11;0.70;77.30
3478;DHT22;37937;61.490;23.506;2023-03-31T08:08:37;0.80;72.30
3478;DHT22;37937;61.490;23.506;2023-03-31T08:11:03;0.90;73.80
3478;DHT22;37937;61.490;23.506;2023-03-31T08:13:29;1.00;63.50
3478;DHT22;37937;61.490;23.506;2023-03-31T08:15:54;1.00;64.50
3478;DHT22;37937;61.490;23.506;2023-03-31T08:18:20;0.70;69.10
3478;DHT22;37937;61.490;23.506;2023-03-31T08:20:46;0.90;66.10
3478;DHT22;37937;61.490;23.506;2023-03-31T08:23:14;1.10;66.40
3478;DHT22;37937;61.490;23.506;2023-03-31T08:25:40;1.20;73.50
3478;DHT22;37937;61.490;23.506;2023-03-31T08:28:06;1.40;63.00
3478;DHT22;37937;61.490;23.506;2023-03-31T08:30:38;1.40;56.60
3478;DHT22;37937;61.490;23.506;2023-03-31T08:33:04;1.40;54.50
3478;DHT22;37937;61.490;23.506;2023-03-31T08:35:30;1.40;56.40
3478;DHT22;37937;61.490;23.506;2023-03-31T08:37:56;2.00;51.90
3478;DHT22;37937;61.490;23.506;2023-03-31T08:40:23;1.70;53.40
3478;DHT22;37937;61.490;23.506;2023-03-31T08:42:49;2.30;59.20
3478;DHT22;37937;61.490;23.506;2023-03-31T08:47:41;1.90;42.50
3478;DHT22;37937;61.490;23.506;2023-03-31T08:50:12;2.60;55.00
3478;DHT22;37937;61.490;23.506;2023-03-31T08:52:43;2.10;35.50
3478;DHT22;37937;61.490;23.506;2023-03-31T08:55:11;2.80;42.60
3478;DHT22;37937;61.490;23.506;2023-03-31T09:00:22;2.70;41.20
3478;DHT22;37937;61.490;23.506;2023-03-31T09:02:49;2.80;33.70
3478;DHT22;37937;61.490;23.506;2023-03-31T09:15:11;3.50;26.50
3478;DHT22;37937;61.490;23.506;2023-03-31T09:17:43;3.20;21.60
3478;DHT22;37937;61.490;23.506;2023-03-31T09:22:41;3.00;25.80
3478;DHT22;37937;61.490;23.506;2023-03-31T09:25:18;3.50;22.80
3478;DHT22;37937;61.490;23.506;2023-03-31T09:27:45;2.90;15.90
3478;DHT22;37937;61.490;23.506;2023-03-31T09:30:14;3.40;22.10
3478;DHT22;37937;61.490;23.506;2023-03-31T09:32:40;2.40;14.10
3478;DHT22;37937;61.490;23.506;2023-03-31T09:35:16;3.30;18.00
3478;DHT22;37937;61.490;23.506;2023-03-31T09:37:42;3.90;16.70
3478;DHT22;37937;61.490;23.506;2023-03-31T09:40:18;4.00;15.10
3478;DHT22;37937;61.490;23.506;2023-03-31T09:42:45;3.80;12.00
3478;DHT22;37937;61.490;23.506;2023-03-31T09:45:15;3.60;7.40
3478;DHT22;37937;61.490;23.506;2023-03-31T09:47:42;3.20;3.20
3478;DHT22;37937;61.490;23.506;2023-03-31T09:50:09;2.90;5.30
3478;DHT22;37937;61.490;23.506;2023-03-31T09:52:54;3.40;2.00
3478;DHT22;37937;61.490;23.506;2023-03-31T09:55:22;3.10;2.10
3478;DHT22;37937;61.490;23.506;2023-03-31T09:57:48;3.90;7.10
3478;DHT22;37937;61.490;23.506;2023-03-31T10:00:15;4.30;1.00
3478;DHT22;37937;61.490;23.506;2023-03-31T10:02:43;5.10;3.50
3478;DHT22;37937;61.490;23.506;2023-03-31T10:08:11;5.00;1.00
3478;DHT22;37937;61.490;23.506;2023-03-31T10:10:42;5.00;1.00
3478;DHT22;37937;61.490;23.506;2023-03-31T10:13:08;5.40;1.00
3478;DHT22;37937;61.490;23.506;2023-03-31T10:15:38;4.90;1.00
3478;DHT22;37937;61.490;23.506;2023-03-31T10:18:04;4.90;1.00
3478;DHT22;37937;61.490;23.506;2023-03-31T10:20:36;5.30;1.00
3478;DHT22;37937;61.490;23.506;2023-03-31T10:23:15;4.60;1.00
3478;DHT22;37937;61.490;23.506;2023-03-31T10:25:41;4.60;1.00
3478;DHT22;37937;61.490;23.506;2023-03-31T10:28:09;4.70;1.00
3478;DHT22;37937;61.490;23.506;2023-03-31T10:30:36;4.60;1.00
3478;DHT22;37937;61.490;23.506;2023-03-31T10:33:06;5.30;1.00
3478;DHT22;37937;61.490;23.506;2023-03-31T10:35:32;4.40;1.00
3478;DHT22;37937;61.490;23.506;2023-03-31T10:38:00;4.30;1.00
3478;DHT22;37937;61.490;23.506;2023-03-31T10:40:27;5.10;1.00
3478;DHT22;37937;61.490;23.506;2023-03-31T10:45:52;5.60;1.00
3478;DHT22;37937;61.490;23.506;2023-03-31T10:48:23;6.00;1.00
3478;DHT22;37937;61.490;23.506;2023-03-31T10:50:49;5.50;1.00
3478;DHT22;37937;61.490;23.506;2023-03-31T10:53:15;5.20;1.00
3478;DHT22;37937;61.490;23.506;2023-03-31T11:05:48;5.10;1.00
3478;DHT22;37937;61.490;23.506;2023-03-31T11:13:37;5.40;1.00
3478;DHT22;37937;61.490;23.506;2023-03-31T11:21:26;5.50;1.00
3478;DHT22;37937;61.490;23.506;2023-03-31T11:31:49;5.60;1.00
3478;DHT22;37937;61.490;23.506;2023-03-31T11:34:29;5.00;1.00
3478;DHT22;37937;61.490;23.506;2023-03-31T11:39:42;5.30;1.00
3478;DHT22;37937;61.490;23.506;2023-03-31T11:42:16;4.70;1.00
3478;DHT22;37937;61.490;23.506;2023-03-31T11:44:47;4.60;1.00
3478;DHT22;37937;61.490;23.506;2023-03-31T11:47:18;5.00;1.00
3478;DHT22;37937;61.490;23.506;2023-03-31T11:49:47;4.80;1.00
3478;DHT22;37937;61.490;23.506;2023-03-31T11:52:38;4.40;1.00
3478;DHT22;37937;61.490;23.506;2023-03-31T11:55:14;4.60;1.00
3478;DHT22;37937;61.490;23.506;2023-03-31T11:57:54;3.70;1.00
3478;DHT22;37937;61.490;23.506;2023-03-31T12:03:28;4.40;1.00
3478;DHT22;37937;61.490;23.506;2023-03-31T12:06:03;4.30;1.00
3478;DHT22;37937;61.490;23.506;2023-03-31T12:11:07;4.00;1.00
3478;DHT22;37937;61.490;23.506;2023-03-31T12:13:48;4.20;1.00
3478;DHT22;37937;61.490;23.506;2023-03-31T12:16:22;4.20;1.00
3478;DHT22;37937;61.490;23.506;2023-03-31T12:21:17;3.70;1.00
3478;DHT22;37937;61.490;23.506;2023-03-31T12:23:43;3.70;1.00
3478;DHT22;37937;61.490;23.506;2023-03-31T12:28:59;3.10;6.90
3478;DHT22;37937;61.490;23.506;2023-03-31T12:31:28;3.10;3.80
3478;DHT22;37937;61.490;23.506;2023-03-31T12:34:07;3.10;1.00
3478;DHT22;37937;61.490;23.506;2023-03-31T12:36:45;3.10;1.00
3478;DHT22;37937;61.490;23.506;2023-03-31T12:39:26;2.70;12.60
3478;DHT22;37937;61.490;23.506;2023-03-31T12:57:24;2.50;7.40
3478;DHT22;37937;61.490;23.506;2023-03-31T13:05:42;2.00;13.80
3478;DHT22;37937;61.490;23.506;2023-03-31T13:08:10;2.00;1.10
3478;DHT22;37937;61.490;23.506;2023-03-31T13:10:55;2.10;5.70
3478;DHT22;37937;61.490;23.506;2023-03-31T13:13:22;2.20;1.00
3478;DHT22;37937;61.490;23.506;2023-03-31T13:15:56;2.30;1.00
3478;DHT22;37937;61.490;23.506;2023-03-31T13:18:24;2.00;10.00
3478;DHT22;37937;61.490;23.506;2023-03-31T13:21:02;1.90;4.80
3478;DHT22;37937;61.490;23.506;2023-03-31T13:23:33;1.60;16.70
3478;DHT22;37937;61.490;23.506;2023-03-31T13:25:59;1.50;14.80
3478;DHT22;37937;61.490;23.506;2023-03-31T13:35:50;1.30;20.10
3478;DHT22;37937;61.490;23.506;2023-03-31T13:39:01;1.30;30.30
3478;DHT22;37937;61.490;23.506;2023-03-31T13:49:00;1.00;22.10
3478;DHT22;37937;61.490;23.506;2023-03-31T14:09:29;0.90;30.50
3478;DHT22;37937;61.490;23.506;2023-03-31T14:11:59;0.90;32.80
3478;DHT22;37937;61.490;23.506;2023-03-31T14:14:25;0.90;21.90
3478;DHT22;37937;61.490;23.506;2023-03-31T14:16:52;0.90;16.50
3478;DHT22;37937;61.490;23.506;2023-03-31T14:21:54;0.90;28.70
3478;DHT22;37937;61.490;23.506;2023-03-31T14:27:13;0.90;22.60
3478;DHT22;37937;61.490;23.506;2023-03-31T14:32:42;0.80;25.30
3478;DHT22;37937;61.490;23.506;2023-03-31T14:35:19;0.80;25.40
3478;DHT22;37937;61.490;23.506;2023-03-31T14:37:48;0.90;23.80
3478;DHT22;37937;61.490;23.506;2023-03-31T14:40:15;0.80;26.80
3478;DHT22;37937;61.490;23.506;2023-03-31T14:42:41;0.80;30.60
3478;DHT22;37937;61.490;23.506;2023-03-31T14:45:26;0.80;24.70
3478;DHT22;37937;61.490;23.506;2023-03-31T14:48:11;0.80;24.20
3478;DHT22;37937;61.490;23.506;2023-03-31T14:50:40;0.70;27.40
3478;DHT22;37937;61.490;23.506;2023-03-31T14:53:12;0.70;22.70
3478;DHT22;37937;61.490;23.506;2023-03-31T14:55:38;0.70;27.90
3478;DHT22;37937;61.490;23.506;2023-03-31T14:58:04;0.60;28.30
3478;DHT22;37937;61.490;23.506;2023-03-31T15:00:30;0.60;19.90
3478;DHT22;37937;61.490;23.506;2023-03-31T15:02:57;0.60;21.20
3478;DHT22;37937;61.490;23.506;2023-03-31T15:05:31;0.70;17.00
3478;DHT22;37937;61.490;23.506;2023-03-31T15:08:01;0.60;28.70
3478;DHT22;37937;61.490;23.506;2023-03-31T15:10:48;0.60;31.70
3478;DHT22;37937;61.490;23.506;2023-03-31T15:13:21;0.60;32.20
3478;DHT22;37937;61.490;23.506;2023-03-31T15:15:49;0.50;42.80
3478;DHT22;37937;61.490;23.506;2023-03-31T15:18:15;0.50;37.80
3478;DHT22;37937;61.490;23.506;2023-03-31T15:20:42;0.50;35.70
3478;DHT22;37937;61.490;23.506;2023-03-31T15:23:18;0.50;29.20
3478;DHT22;37937;61.490;23.506;2023-03-31T15:25:56;0.50;26.90
3478;DHT22;37937;61.490;23.506;2023-03-31T15:28:22;0.50;34.90
3478;DHT22;37937;61.490;23.506;2023-03-31T15:30:50;0.40;34.70
3478;DHT22;37937;61.490;23.506;2023-03-31T15:33:17;0.30;37.90
3478;DHT22;37937;61.490;23.506;2023-03-31T15:35:43;0.30;34.10
3478;DHT22;37937;61.490;23.506;2023-03-31T15:38:10;0.30;38.60
3478;DHT22;37937;61.490;23.506;2023-03-31T15:43:08;0.20;34.80
3478;DHT22;37937;61.490;23.506;2023-03-31T15:45:54;0.10;38.00
3478;DHT22;37937;61.490;23.506;2023-03-31T15:48:21;0.10;40.70
3478;DHT22;37937;61.490;23.506;2023-03-31T15:50:48;0.10;38.20
3478;DHT22;37937;61.490;23.506;2023-03-31T15:53:24;0.00;41.70
3478;DHT22;37937;61.490;23.506;2023-03-31T15:55:58;-0.10;45.20
3478;DHT22;37937;61.490;23.506;2023-03-31T15:58:44;-0.20;43.80
3478;DHT22;37937;61.490;23.506;2023-03-31T16:01:10;-0.20;52.10
3478;DHT22;37937;61.490;23.506;2023-03-31T16:03:40;-0.20;44.70
3478;DHT22;37937;61.490;23.506;2023-03-31T16:06:14;-0.30;57.50
3478;DHT22;37937;61.490;23.506;2023-03-31T16:08:44;-0.50;72.00
3478;DHT22;37937;61.490;23.506;2023-03-31T16:11:12;-0.50;70.40
3478;DHT22;37937;61.490;23.506;2023-03-31T16:13:40;-0.60;64.10
3478;DHT22;37937;61.490;23.506;2023-03-31T16:16:07;-0.70;78.60
3478;DHT22;37937;61.490;23.506;2023-03-31T16:18:35;-0.80;75.90
3478;DHT22;37937;61.490;23.506;2023-03-31T16:21:03;-0.90;73.50
3478;DHT22;37937;61.490;23.506;2023-03-31T16:23:30;-0.90;74.30
3478;DHT22;37937;61.490;23.506;2023-03-31T16:25:57;-1.00;91.20
3478;DHT22;37937;61.490;23.506;2023-03-31T16:28:29;-1.10;85.80
3478;DHT22;37937;61.490;23.506;2023-03-31T16:30:55;-1.20;89.10
3478;DHT22;37937;61.490;23.506;2023-03-31T16:33:23;-1.20;93.80
3478;DHT22;37937;61.490;23.506;2023-03-31T16:35:50;-1.30;94.90
3478;DHT22;37937;61.490;23.506;2023-03-31T16:38:18;-1.40;97.10
3478;DHT22;37937;61.490;23.506;2023-03-31T16:40:44;-1.40;99.20
3478;DHT22;37937;61.490;23.506;2023-03-31T16:43:21;-1.50;99.90
3478;DHT22;37937;61.490;23.506;2023-03-31T16:45:48;-1.60;99.90
3478;DHT22;37937;61.490;23.506;2023-03-31T16:48:14;-1.60;99.90
3478;DHT22;37937;61.490;23.506;2023-03-31T16:50:41;-1.70;99.90
3478;DHT22;37937;61.490;23.506;2023-03-31T16:53:07;-1.80;99.90
3478;DHT22;37937;61.490;23.506;2023-03-31T16:55:33;-1.80;99.90
3478;DHT22;37937;61.490;23.506;2023-03-31T16:57:59;-1.90;99.90
3478;DHT22;37937;61.490;23.506;2023-03-31T17:00:30;-2.00;99.90
3478;DHT22;37937;61.490;23.506;2023-03-31T17:02:58;-2.00;99.90
3478;DHT22;37937;61.490;23.506;2023-03-31T17:05:25;-2.10;99.90
3478;DHT22;37937;61.490;23.506;2023-03-31T17:07:51;-2.10;99.90
3478;DHT22;37937;61.490;23.506;2023-03-31T17:10:17;-2.20;99.90
3478;DHT22;37937;61.490;23.506;2023-03-31T17:12:43;-2.20;99.90
3478;DHT22;37937;61.490;23.506;2023-03-31T17:15:09;-2.30;99.90
3478;DHT22;37937;61.490;23.506;2023-03-31T17:17:34;-2.30;99.90
3478;DHT22;37937;61.490;23.506;2023-03-31T17:20:01;-2.40;99.90
3478;DHT22;37937;61.490;23.506;2023-03-31T17:22:27;-2.40;99.90
3478;DHT22;37937;61.490;23.506;2023-03-31T17:24:52;-2.50;99.90
3478;DHT22;37937;61.490;23.506;2023-03-31T17:27:26;-2.50;99.90
3478;DHT22;37937;61.490;23.506;2023-03-31T17:29:52;-2.60;99.90
3478;DHT22;37937;61.490;23.506;2023-03-31T17:32:18;-2.70;99.90
3478;DHT22;37937;61.490;23.506;2023-03-31T17:34:44;-2.70;99.90
3478;DHT22;37937;61.490;23.506;2023-03-31T17:37:09;-2.80;99.90
3478;DHT22;37937;61.490;23.506;2023-03-31T17:39:35;-2.80;99.90
3478;DHT22;37937;61.490;23.506;2023-03-31T17:42:01;-2.90;99.90
3478;DHT22;37937;61.490;23.506;2023-03-31T17:44:28;-2.90;99.90
3478;DHT22;37937;61.490;23.506;2023-03-31T17:46:54;-3.00;99.90
3478;DHT22;37937;61.490;23.506;2023-03-31T17:49:19;-3.10;99.90
3478;DHT22;37937;61.490;23.506;2023-03-31T17:51:45;-3.10;99.90
3478;DHT22;37937;61.490;23.506;2023-03-31T17:54:11;-3.20;99.90
3478;DHT22;37937;61.490;23.506;2023-03-31T17:56:37;-3.20;99.90
3478;DHT22;37937;61.490;23.506;2023-03-31T17:59:03;-3.20;99.90
3478;DHT22;37937;61.490;23.506;2023-03-31T18:01:29;-3.20;99.90
3478;DHT22;37937;61.490;23.506;2023-03-31T18:03:55;-3.30;99.90
3478;DHT22;37937;61.490;23.506;2023-03-31T18:06:20;-3.30;99.90
3478;DHT22;37937;61.490;23.506;2023-03-31T18:08:46;-3.40;99.90
3478;DHT22;37937;61.490;23.506;2023-03-31T18:11:12;-3.40;99.90
3478;DHT22;37937;61.490;23.506;2023-03-31T18:13:38;-3.50;99.90
3478;DHT22;37937;61.490;23.506;2023-03-31T18:16:04;-3.50;99.90
3478;DHT22;37937;61.490;23.506;2023-03-31T18:18:30;-3.50;99.90
3478;DHT22;37937;61.490;23.506;2023-03-31T18:20:55;-3.60;99.90
3478;DHT22;37937;61.490;23.506;2023-03-31T18:23:21;-3.60;99.90
3478;DHT22;37937;61.490;23.506;2023-03-31T18:25:47;-3.60;99.90
3478;DHT22;37937;61.490;23.506;2023-03-31T18:28:13;-3.70;99.90
3478;DHT22;37937;61.490;23.506;2023-03-31T18:30:39;-3.80;99.90
3478;DHT22;37937;61.490;23.506;2023-03-31T18:33:05;-3.80;99.90
3478;DHT22;37937;61.490;23.506;2023-03-31T18:35:31;-3.80;99.90
3478;DHT22;37937;61.490;23.506;2023-03-31T18:37:57;-3.80;99.90
3478;DHT22;37937;61.490;23.506;2023-03-31T18:40:23;-3.80;99.90
3478;DHT22;37937;61.490;23.506;2023-03-31T18:42:49;-3.90;99.90